sensor_id;sensor_type;location;lat;lon;timestamp;pressure;altitude;pressure_sealevel;temperature;humidity
75775;BME280;64505;51.458;7.556;2023-07-22T00:00:45;99615.00;;;12.08;82.40
75775;BME280;64505;51.458;7.556;2023-07-22T00:02:47;99610.16;;;12.05;83.65
75775;BME280;64505;51.458;7.556;2023-07-22T00:04:49;99614.09;;;12.02;82.52
75775;BME280;64505;51.458;7.556;2023-07-22T00:06:50;99619.03;;;11.99;82.93
75775;BME280;64505;51.458;7.556;2023-07-22T00:08:53;99624.59;;;11.97;82.13
75775;BME280;64505;51.458;7.556;2023-07-22T00:10:55;99626.66;;;11.95;83.54
75775;BME280;64505;51.458;7.556;2023-07-22T00:12:56;99615.25;;;11.95;82.55
75775;BME280;64505;51.458;7.556;2023-07-22T00:14:58;99624.25;;;11.94;83.90
75775;BME280;64505;51.458;7.556;2023-07-22T00:16:59;99621.94;;;11.97;84.47
75775;BME280;64505;51.458;7.556;2023-07-22T00:19:01;99616.06;;;11.95;84.14
75775;BME280;64505;51.458;7.556;2023-07-22T00:21:03;99617.69;;;11.96;83.23
75775;BME280;64505;51.458;7.556;2023-07-22T00:23:04;99618.16;;;11.93;83.00
75775;BME280;64505;51.458;7.556;2023-07-22T00:25:10;99618.59;;;11.90;83.78
75775;BME280;64505;51.458;7.556;2023-07-22T00:27:12;99609.06;;;11.89;82.93
75775;BME280;64505;51.458;7.556;2023-07-22T00:29:13;99611.34;;;11.86;83.86
75775;BME280;64505;51.458;7.556;2023-07-22T00:31:15;99610.22;;;11.81;85.03
75775;BME280;64505;51.458;7.556;2023-07-22T00:33:17;99612.28;;;11.79;83.81
75775;BME280;64505;51.458;7.556;2023-07-22T00:35:18;99624.41;;;11.75;84.00
75775;BME280;64505;51.458;7.556;2023-07-22T00:37:20;99608.72;;;11.74;83.25
75775;BME280;64505;51.458;7.556;2023-07-22T00:39:21;99621.59;;;11.70;83.39
75775;BME280;64505;51.458;7.556;2023-07-22T00:41:23;99610.66;;;11.67;83.92
75775;BME280;64505;51.458;7.556;2023-07-22T00:43:24;99611.47;;;11.67;83.89
75775;BME280;64505;51.458;7.556;2023-07-22T00:45:27;99607.19;;;11.66;83.42
75775;BME280;64505;51.458;7.556;2023-07-22T00:47:28;99607.34;;;11.71;83.25
75775;BME280;64505;51.458;7.556;2023-07-22T00:49:30;99607.75;;;11.68;83.93
75775;BME280;64505;51.458;7.556;2023-07-22T00:51:32;99612.50;;;11.66;85.35
75775;BME280;64505;51.458;7.556;2023-07-22T00:53:34;99611.34;;;11.62;83.94
75775;BME280;64505;51.458;7.556;2023-07-22T00:55:39;99610.31;;;11.63;84.54
75775;BME280;64505;51.458;7.556;2023-07-22T00:57:41;99609.50;;;11.63;85.09
75775;BME280;64505;51.458;7.556;2023-07-22T00:59:43;99601.09;;;11.66;85.21
75775;BME280;64505;51.458;7.556;2023-07-22T01:01:44;99602.13;;;11.65;84.79
75775;BME280;64505;51.458;7.556;2023-07-22T01:03:46;99606.63;;;11.64;86.17
75775;BME280;64505;51.458;7.556;2023-07-22T01:05:48;99601.69;;;11.68;84.92
75775;BME280;64505;51.458;7.556;2023-07-22T01:07:51;99604.88;;;11.70;84.66
75775;BME280;64505;51.458;7.556;2023-07-22T01:09:56;99600.41;;;11.70;85.33
75775;BME280;64505;51.458;7.556;2023-07-22T01:11:58;99599.59;;;11.70;85.74
75775;BME280;64505;51.458;7.556;2023-07-22T01:13:59;99594.91;;;11.72;85.57
75775;BME280;64505;51.458;7.556;2023-07-22T01:16:01;99598.13;;;11.74;84.95
75775;BME280;64505;51.458;7.556;2023-07-22T01:18:03;99582.00;;;11.75;84.32
75775;BME280;64505;51.458;7.556;2023-07-22T01:20:05;99588.91;;;11.76;85.84
75775;BME280;64505;51.458;7.556;2023-07-22T01:22:07;99579.59;;;11.74;85.68
75775;BME280;64505;51.458;7.556;2023-07-22T01:24:09;99583.84;;;11.75;86.60
75775;BME280;64505;51.458;7.556;2023-07-22T01:26:11;99586.97;;;11.72;86.15
75775;BME280;64505;51.458;7.556;2023-07-22T01:28:12;99591.66;;;11.70;85.17
75775;BME280;64505;51.458;7.556;2023-07-22T01:30:14;99586.34;;;11.70;86.27
75775;BME280;64505;51.458;7.556;2023-07-22T01:32:15;99591.88;;;11.68;86.71
75775;BME280;64505;51.458;7.556;2023-07-22T01:34:18;99588.88;;;11.65;85.72
75775;BME280;64505;51.458;7.556;2023-07-22T01:36:19;99585.44;;;11.64;86.05
75775;BME280;64505;51.458;7.556;2023-07-22T01:38:21;99589.13;;;11.63;85.92
75775;BME280;64505;51.458;7.556;2023-07-22T01:40:24;99589.94;;;11.64;86.55
75775;BME280;64505;51.458;7.556;2023-07-22T01:42:26;99580.16;;;11.64;85.76
75775;BME280;64505;51.458;7.556;2023-07-22T01:44:27;99581.19;;;11.63;86.07
75775;BME280;64505;51.458;7.556;2023-07-22T01:46:29;99581.41;;;11.62;85.88
75775;BME280;64505;51.458;7.556;2023-07-22T01:48:31;99585.13;;;11.61;85.70
75775;BME280;64505;51.458;7.556;2023-07-22T01:50:33;99586.94;;;11.60;86.52
75775;BME280;64505;51.458;7.556;2023-07-22T01:52:35;99588.53;;;11.61;86.31
75775;BME280;64505;51.458;7.556;2023-07-22T01:54:36;99585.13;;;11.61;86.48
75775;BME280;64505;51.458;7.556;2023-07-22T01:56:38;99576.09;;;11.62;86.16
75775;BME280;64505;51.458;7.556;2023-07-22T01:58:40;99580.38;;;11.63;85.79
75775;BME280;64505;51.458;7.556;2023-07-22T02:00:41;99580.59;;;11.61;87.53
75775;BME280;64505;51.458;7.556;2023-07-22T02:02:43;99584.31;;;11.60;87.27
75775;BME280;64505;51.458;7.556;2023-07-22T02:04:45;99587.75;;;11.61;86.36
75775;BME280;64505;51.458;7.556;2023-07-22T02:06:47;99591.19;;;11.61;85.18
75775;BME280;64505;51.458;7.556;2023-07-22T02:08:49;99585.88;;;11.61;87.55
75775;BME280;64505;51.458;7.556;2023-07-22T02:10:51;99586.69;;;11.62;88.45
75775;BME280;64505;51.458;7.556;2023-07-22T02:12:52;99582.22;;;11.62;87.35
75775;BME280;64505;51.458;7.556;2023-07-22T02:14:54;99568.41;;;11.60;88.43
75775;BME280;64505;51.458;7.556;2023-07-22T02:16:55;99574.59;;;11.66;86.92
75775;BME280;64505;51.458;7.556;2023-07-22T02:18:57;99570.94;;;11.67;87.50
75775;BME280;64505;51.458;7.556;2023-07-22T02:20:58;99567.25;;;11.68;87.16
75775;BME280;64505;51.458;7.556;2023-07-22T02:23:00;99571.16;;;11.65;87.17
75775;BME280;64505;51.458;7.556;2023-07-22T02:25:01;99562.50;;;11.70;87.11
75775;BME280;64505;51.458;7.556;2023-07-22T02:27:03;99554.38;;;11.71;87.66
75775;BME280;64505;51.458;7.556;2023-07-22T02:29:04;99558.88;;;11.71;89.11
75775;BME280;64505;51.458;7.556;2023-07-22T02:31:06;99562.50;;;11.70;89.46
75775;BME280;64505;51.458;7.556;2023-07-22T02:33:08;99566.81;;;11.71;89.14
75775;BME280;64505;51.458;7.556;2023-07-22T02:35:10;99564.97;;;11.71;89.00
75775;BME280;64505;51.458;7.556;2023-07-22T02:37:12;99563.69;;;11.74;88.86
75775;BME280;64505;51.458;7.556;2023-07-22T02:39:13;99562.06;;;11.73;88.18
75775;BME280;64505;51.458;7.556;2023-07-22T02:41:15;99559.41;;;11.73;88.47
75775;BME280;64505;51.458;7.556;2023-07-22T02:43:16;99569.78;;;11.74;88.17
75775;BME280;64505;51.458;7.556;2023-07-22T02:45:18;99567.97;;;11.75;89.13
75775;BME280;64505;51.458;7.556;2023-07-22T02:47:19;99574.28;;;11.74;88.75
75775;BME280;64505;51.458;7.556;2023-07-22T02:49:21;99573.81;;;11.77;89.14
75775;BME280;64505;51.458;7.556;2023-07-22T02:51:22;99577.06;;;11.79;87.73
75775;BME280;64505;51.458;7.556;2023-07-22T02:53:24;99578.63;;;11.80;87.36
75775;BME280;64505;51.458;7.556;2023-07-22T02:55:25;99578.41;;;11.81;88.20
75775;BME280;64505;51.458;7.556;2023-07-22T02:57:27;99575.53;;;11.83;87.51
75775;BME280;64505;51.458;7.556;2023-07-22T02:59:28;99577.47;;;11.88;87.41
75775;BME280;64505;51.458;7.556;2023-07-22T03:01:30;99582.56;;;11.89;87.52
75775;BME280;64505;51.458;7.556;2023-07-22T03:03:32;99582.09;;;11.92;86.98
75775;BME280;64505;51.458;7.556;2023-07-22T03:05:34;99578.63;;;11.92;86.56
75775;BME280;64505;51.458;7.556;2023-07-22T03:07:37;99585.53;;;11.93;86.90
75775;BME280;64505;51.458;7.556;2023-07-22T03:09:39;99580.00;;;11.94;87.01
75775;BME280;64505;51.458;7.556;2023-07-22T03:11:40;99576.31;;;11.95;87.04
75775;BME280;64505;51.458;7.556;2023-07-22T03:13:42;99578.97;;;11.95;85.87
75775;BME280;64505;51.458;7.556;2023-07-22T03:15:43;99584.03;;;11.97;88.59
75775;BME280;64505;51.458;7.556;2023-07-22T03:17:45;99580.91;;;12.00;87.97
75775;BME280;64505;51.458;7.556;2023-07-22T03:19:47;99578.47;;;11.98;87.57
75775;BME280;64505;51.458;7.556;2023-07-22T03:21:50;99579.63;;;12.02;87.42
75775;BME280;64505;51.458;7.556;2023-07-22T03:23:52;99585.25;;;12.06;88.07
75775;BME280;64505;51.458;7.556;2023-07-22T03:25:53;99581.59;;;12.07;87.01
75775;BME280;64505;51.458;7.556;2023-07-22T03:27:55;99582.94;;;12.09;86.35
75775;BME280;64505;51.458;7.556;2023-07-22T03:29:56;99580.56;;;12.08;87.40
75775;BME280;64505;51.458;7.556;2023-07-22T03:31:57;99585.38;;;12.11;86.27
75775;BME280;64505;51.458;7.556;2023-07-22T03:34:01;99583.28;;;12.13;87.04
75775;BME280;64505;51.458;7.556;2023-07-22T03:36:03;99574.53;;;12.12;86.10
75775;BME280;64505;51.458;7.556;2023-07-22T03:38:04;99586.53;;;12.15;87.07
75775;BME280;64505;51.458;7.556;2023-07-22T03:40:07;99583.63;;;12.16;86.47
75775;BME280;64505;51.458;7.556;2023-07-22T03:42:12;99575.44;;;12.18;85.87
75775;BME280;64505;51.458;7.556;2023-07-22T03:44:13;99582.91;;;12.21;86.54
75775;BME280;64505;51.458;7.556;2023-07-22T03:46:15;99585.56;;;12.21;86.28
75775;BME280;64505;51.458;7.556;2023-07-22T03:48:17;99580.25;;;12.21;86.09
75775;BME280;64505;51.458;7.556;2023-07-22T03:50:18;99587.19;;;12.22;86.27
75775;BME280;64505;51.458;7.556;2023-07-22T03:52:20;99583.25;;;12.24;85.91
75775;BME280;64505;51.458;7.556;2023-07-22T03:54:21;99587.53;;;12.25;85.78
75775;BME280;64505;51.458;7.556;2023-07-22T03:56:23;99583.03;;;12.26;86.70
75775;BME280;64505;51.458;7.556;2023-07-22T03:58:28;99575.63;;;12.28;86.16
75775;BME280;64505;51.458;7.556;2023-07-22T04:00:30;99580.44;;;12.31;86.28
75775;BME280;64505;51.458;7.556;2023-07-22T04:02:32;99580.22;;;12.32;85.27
75775;BME280;64505;51.458;7.556;2023-07-22T04:04:34;99580.56;;;12.36;85.08
75775;BME280;64505;51.458;7.556;2023-07-22T04:06:35;99579.53;;;12.37;85.02
75775;BME280;64505;51.458;7.556;2023-07-22T04:08:36;99591.72;;;12.38;85.29
75775;BME280;64505;51.458;7.556;2023-07-22T04:10:38;99586.19;;;12.40;84.99
75775;BME280;64505;51.458;7.556;2023-07-22T04:12:40;99585.72;;;12.43;84.86
75775;BME280;64505;51.458;7.556;2023-07-22T04:14:43;99583.88;;;12.43;84.14
75775;BME280;64505;51.458;7.556;2023-07-22T04:16:45;99579.13;;;12.45;85.28
75775;BME280;64505;51.458;7.556;2023-07-22T04:18:46;99582.84;;;12.44;85.83
75775;BME280;64505;51.458;7.556;2023-07-22T04:20:48;99581.28;;;12.48;86.62
75775;BME280;64505;51.458;7.556;2023-07-22T04:22:49;99586.94;;;12.52;86.64
75775;BME280;64505;51.458;7.556;2023-07-22T04:24:50;99587.50;;;12.54;85.02
75775;BME280;64505;51.458;7.556;2023-07-22T04:26:52;99588.06;;;12.56;85.29
75775;BME280;64505;51.458;7.556;2023-07-22T04:28:54;99586.00;;;12.58;87.20
75775;BME280;64505;51.458;7.556;2023-07-22T04:30:57;99591.84;;;12.60;86.47
75775;BME280;64505;51.458;7.556;2023-07-22T04:32:59;99589.53;;;12.63;85.85
75775;BME280;64505;51.458;7.556;2023-07-22T04:35:03;99590.91;;;12.66;86.20
75775;BME280;64505;51.458;7.556;2023-07-22T04:37:05;99586.72;;;12.70;86.02
75775;BME280;64505;51.458;7.556;2023-07-22T04:39:06;99592.59;;;12.72;86.61
75775;BME280;64505;51.458;7.556;2023-07-22T04:41:09;99589.47;;;12.75;85.74
75775;BME280;64505;51.458;7.556;2023-07-22T04:43:11;99590.94;;;12.82;86.10
75775;BME280;64505;51.458;7.556;2023-07-22T04:45:13;99591.47;;;12.84;86.45
75775;BME280;64505;51.458;7.556;2023-07-22T04:47:15;99601.38;;;12.89;85.98
75775;BME280;64505;51.458;7.556;2023-07-22T04:49:17;99592.94;;;12.92;84.26
75775;BME280;64505;51.458;7.556;2023-07-22T04:51:19;99596.72;;;12.96;84.26
75775;BME280;64505;51.458;7.556;2023-07-22T04:53:21;99594.16;;;13.01;85.16
75775;BME280;64505;51.458;7.556;2023-07-22T04:55:22;99598.97;;;13.04;85.36
75775;BME280;64505;51.458;7.556;2023-07-22T04:57:24;99596.88;;;13.06;84.09
75775;BME280;64505;51.458;7.556;2023-07-22T04:59:25;99597.22;;;13.10;84.96
75775;BME280;64505;51.458;7.556;2023-07-22T05:01:27;99596.78;;;13.13;85.65
75775;BME280;64505;51.458;7.556;2023-07-22T05:03:29;99600.31;;;13.18;85.16
75775;BME280;64505;51.458;7.556;2023-07-22T05:05:31;99603.03;;;13.23;85.41
75775;BME280;64505;51.458;7.556;2023-07-22T05:07:33;99604.63;;;13.24;83.60
75775;BME280;64505;51.458;7.556;2023-07-22T05:09:36;99600.78;;;13.32;84.09
75775;BME280;64505;51.458;7.556;2023-07-22T05:11:38;99601.41;;;13.39;81.99
75775;BME280;64505;51.458;7.556;2023-07-22T05:13:39;99603.03;;;13.40;83.58
75775;BME280;64505;51.458;7.556;2023-07-22T05:15:41;99594.88;;;13.47;82.65
75775;BME280;64505;51.458;7.556;2023-07-22T05:17:42;99593.97;;;13.58;83.03
75775;BME280;64505;51.458;7.556;2023-07-22T05:19:44;99595.41;;;13.65;82.82
75775;BME280;64505;51.458;7.556;2023-07-22T05:21:45;99600.31;;;13.73;82.14
75775;BME280;64505;51.458;7.556;2023-07-22T05:23:47;99595.03;;;13.78;81.97
75775;BME280;64505;51.458;7.556;2023-07-22T05:25:52;99595.94;;;13.84;80.66
75775;BME280;64505;51.458;7.556;2023-07-22T05:27:54;99596.78;;;13.90;80.66
75775;BME280;64505;51.458;7.556;2023-07-22T05:29:56;99599.72;;;13.88;80.05
75775;BME280;64505;51.458;7.556;2023-07-22T05:31:57;99598.47;;;13.96;81.63
75775;BME280;64505;51.458;7.556;2023-07-22T05:33:59;99596.66;;;14.01;80.52
75775;BME280;64505;51.458;7.556;2023-07-22T05:36:00;99594.38;;;14.10;80.91
75775;BME280;64505;51.458;7.556;2023-07-22T05:38:02;99594.13;;;14.11;79.18
75775;BME280;64505;51.458;7.556;2023-07-22T05:40:06;99598.22;;;14.19;81.11
75775;BME280;64505;51.458;7.556;2023-07-22T05:42:08;99593.69;;;14.19;78.48
75775;BME280;64505;51.458;7.556;2023-07-22T05:44:10;99594.56;;;14.25;79.58
75775;BME280;64505;51.458;7.556;2023-07-22T05:46:11;99596.16;;;14.26;79.84
75775;BME280;64505;51.458;7.556;2023-07-22T05:48:13;99599.91;;;14.25;79.38
75775;BME280;64505;51.458;7.556;2023-07-22T05:50:14;99606.25;;;14.24;79.53
75775;BME280;64505;51.458;7.556;2023-07-22T05:52:15;99596.44;;;14.24;80.58
75775;BME280;64505;51.458;7.556;2023-07-22T05:54:18;99600.19;;;14.28;78.42
75775;BME280;64505;51.458;7.556;2023-07-22T05:56:19;99601.88;;;14.35;79.32
75775;BME280;64505;51.458;7.556;2023-07-22T05:58:21;99604.63;;;14.40;79.16
75775;BME280;64505;51.458;7.556;2023-07-22T06:00:22;99602.78;;;14.45;79.81
75775;BME280;64505;51.458;7.556;2023-07-22T06:02:24;99601.28;;;14.54;78.36
75775;BME280;64505;51.458;7.556;2023-07-22T06:04:25;99597.63;;;14.60;79.40
75775;BME280;64505;51.458;7.556;2023-07-22T06:06:27;99596.56;;;14.61;75.51
75775;BME280;64505;51.458;7.556;2023-07-22T06:08:29;99595.31;;;14.69;75.83
75775;BME280;64505;51.458;7.556;2023-07-22T06:10:31;99598.31;;;14.77;75.58
75775;BME280;64505;51.458;7.556;2023-07-22T06:12:33;99602.38;;;14.85;75.96
75775;BME280;64505;51.458;7.556;2023-07-22T06:14:34;99599.44;;;14.82;73.99
75775;BME280;64505;51.458;7.556;2023-07-22T06:16:35;99600.56;;;14.91;73.21
75775;BME280;64505;51.458;7.556;2023-07-22T06:18:37;99594.81;;;15.04;73.25
75775;BME280;64505;51.458;7.556;2023-07-22T06:20:39;99595.41;;;15.11;73.02
75775;BME280;64505;51.458;7.556;2023-07-22T06:22:40;99590.09;;;15.11;72.38
75775;BME280;64505;51.458;7.556;2023-07-22T06:24:42;99591.72;;;15.17;72.25
75775;BME280;64505;51.458;7.556;2023-07-22T06:26:43;99596.59;;;15.25;73.43
75775;BME280;64505;51.458;7.556;2023-07-22T06:28:45;99596.88;;;15.28;70.58
75775;BME280;64505;51.458;7.556;2023-07-22T06:30:47;99593.69;;;15.32;72.48
75775;BME280;64505;51.458;7.556;2023-07-22T06:32:48;99596.94;;;15.34;70.13
75775;BME280;64505;51.458;7.556;2023-07-22T06:34:50;99595.59;;;15.36;70.17
75775;BME280;64505;51.458;7.556;2023-07-22T06:36:51;99599.66;;;15.44;70.67
75775;BME280;64505;51.458;7.556;2023-07-22T06:38:53;99598.09;;;15.48;70.16
75775;BME280;64505;51.458;7.556;2023-07-22T06:40:55;99602.44;;;15.59;70.52
75775;BME280;64505;51.458;7.556;2023-07-22T06:42:58;99602.16;;;15.60;69.48
75775;BME280;64505;51.458;7.556;2023-07-22T06:45:00;99604.66;;;15.72;69.98
75775;BME280;64505;51.458;7.556;2023-07-22T06:47:01;99603.31;;;15.69;69.70
75775;BME280;64505;51.458;7.556;2023-07-22T06:49:02;99604.09;;;15.70;70.22
75775;BME280;64505;51.458;7.556;2023-07-22T06:51:04;99603.31;;;15.74;68.81
75775;BME280;64505;51.458;7.556;2023-07-22T06:53:05;99602.06;;;15.87;69.65
75775;BME280;64505;51.458;7.556;2023-07-22T06:55:07;99603.72;;;16.03;70.36
75775;BME280;64505;51.458;7.556;2023-07-22T06:57:09;99604.28;;;16.05;68.25
75775;BME280;64505;51.458;7.556;2023-07-22T06:59:10;99592.59;;;16.16;66.71
75775;BME280;64505;51.458;7.556;2023-07-22T07:01:11;99595.00;;;16.28;67.94
75775;BME280;64505;51.458;7.556;2023-07-22T07:03:13;99597.44;;;16.40;68.35
75775;BME280;64505;51.458;7.556;2023-07-22T07:05:15;99593.22;;;16.49;68.03
75775;BME280;64505;51.458;7.556;2023-07-22T07:07:18;99600.72;;;16.57;66.58
75775;BME280;64505;51.458;7.556;2023-07-22T07:09:19;99603.13;;;16.58;65.27
75775;BME280;64505;51.458;7.556;2023-07-22T07:11:21;99595.94;;;16.69;65.70
75775;BME280;64505;51.458;7.556;2023-07-22T07:13:22;99599.16;;;16.81;65.33
75775;BME280;64505;51.458;7.556;2023-07-22T07:15:25;99606.38;;;16.96;64.66
75775;BME280;64505;51.458;7.556;2023-07-22T07:17:26;99594.88;;;17.05;64.07
75775;BME280;64505;51.458;7.556;2023-07-22T07:19:28;99599.41;;;17.15;64.70
75775;BME280;64505;51.458;7.556;2023-07-22T07:21:30;99598.59;;;17.30;65.30
75775;BME280;64505;51.458;7.556;2023-07-22T07:23:31;99601.53;;;17.33;64.36
75775;BME280;64505;51.458;7.556;2023-07-22T07:25:33;99590.84;;;17.38;65.04
75775;BME280;64505;51.458;7.556;2023-07-22T07:27:34;99593.53;;;17.28;63.19
75775;BME280;64505;51.458;7.556;2023-07-22T07:29:36;99589.78;;;17.34;63.47
75775;BME280;64505;51.458;7.556;2023-07-22T07:31:40;99593.53;;;17.38;62.47
75775;BME280;64505;51.458;7.556;2023-07-22T07:33:42;99585.00;;;17.36;62.97
75775;BME280;64505;51.458;7.556;2023-07-22T07:35:46;99585.78;;;17.47;61.66
75775;BME280;64505;51.458;7.556;2023-07-22T07:37:48;99594.59;;;17.57;63.04
75775;BME280;64505;51.458;7.556;2023-07-22T07:39:49;99596.19;;;17.58;61.63
75775;BME280;64505;51.458;7.556;2023-07-22T07:41:50;99595.94;;;17.60;61.51
75775;BME280;64505;51.458;7.556;2023-07-22T07:43:52;99596.19;;;17.68;62.61
75775;BME280;64505;51.458;7.556;2023-07-22T07:48:19;99598.00;;;17.78;60.45
75775;BME280;64505;51.458;7.556;2023-07-22T07:50:20;99606.03;;;17.83;60.62
75775;BME280;64505;51.458;7.556;2023-07-22T07:52:22;99609.44;;;17.99;61.22
75775;BME280;64505;51.458;7.556;2023-07-22T07:54:24;99606.22;;;18.02;61.97
75775;BME280;64505;51.458;7.556;2023-07-22T07:56:25;99600.66;;;17.93;58.45
75775;BME280;64505;51.458;7.556;2023-07-22T07:58:27;99608.03;;;18.16;60.36
75775;BME280;64505;51.458;7.556;2023-07-22T08:00:29;99610.19;;;18.14;59.45
75775;BME280;64505;51.458;7.556;2023-07-22T08:02:30;99609.13;;;18.10;59.26
75775;BME280;64505;51.458;7.556;2023-07-22T08:04:32;99598.69;;;18.19;59.80
75775;BME280;64505;51.458;7.556;2023-07-22T08:06:34;99600.25;;;18.25;59.21
75775;BME280;64505;51.458;7.556;2023-07-22T08:08:36;99605.53;;;18.35;59.10
75775;BME280;64505;51.458;7.556;2023-07-22T08:10:37;99606.59;;;18.34;58.54
75775;BME280;64505;51.458;7.556;2023-07-22T08:12:40;99607.34;;;18.55;58.02
75775;BME280;64505;51.458;7.556;2023-07-22T08:14:41;99612.91;;;18.63;57.52
75775;BME280;64505;51.458;7.556;2023-07-22T08:16:43;99607.25;;;18.70;58.24
75775;BME280;64505;51.458;7.556;2023-07-22T08:18:45;99600.31;;;18.64;58.74
75775;BME280;64505;51.458;7.556;2023-07-22T08:20:48;99610.50;;;18.62;58.13
75775;BME280;64505;51.458;7.556;2023-07-22T08:22:49;99603.28;;;18.62;57.16
75775;BME280;64505;51.458;7.556;2023-07-22T08:24:51;99611.50;;;18.71;57.26
75775;BME280;64505;51.458;7.556;2023-07-22T08:26:52;99617.66;;;18.77;56.17
75775;BME280;64505;51.458;7.556;2023-07-22T08:28:54;99605.53;;;18.84;57.25
75775;BME280;64505;51.458;7.556;2023-07-22T08:30:56;99606.50;;;18.98;58.08
75775;BME280;64505;51.458;7.556;2023-07-22T08:32:58;99613.81;;;18.88;56.34
75775;BME280;64505;51.458;7.556;2023-07-22T08:34:59;99620.25;;;18.87;56.93
75775;BME280;64505;51.458;7.556;2023-07-22T08:37:01;99616.44;;;18.93;56.63
75775;BME280;64505;51.458;7.556;2023-07-22T08:39:02;99603.34;;;18.91;56.58
75775;BME280;64505;51.458;7.556;2023-07-22T08:41:05;99602.38;;;19.11;55.48
75775;BME280;64505;51.458;7.556;2023-07-22T08:43:08;99601.63;;;19.05;55.17
75775;BME280;64505;51.458;7.556;2023-07-22T08:45:10;99601.75;;;19.24;56.73
75775;BME280;64505;51.458;7.556;2023-07-22T08:47:16;99606.44;;;19.37;56.66
75775;BME280;64505;51.458;7.556;2023-07-22T08:49:18;99609.13;;;19.37;54.36
75775;BME280;64505;51.458;7.556;2023-07-22T08:51:21;99606.72;;;19.64;54.17
75775;BME280;64505;51.458;7.556;2023-07-22T08:53:24;99611.13;;;19.79;55.63
75775;BME280;64505;51.458;7.556;2023-07-22T08:55:26;99604.03;;;19.64;54.26
75775;BME280;64505;51.458;7.556;2023-07-22T08:57:29;99606.06;;;19.78;55.37
75775;BME280;64505;51.458;7.556;2023-07-22T08:59:31;99609.06;;;19.95;56.40
75775;BME280;64505;51.458;7.556;2023-07-22T09:01:34;99602.53;;;19.82;52.40
75775;BME280;64505;51.458;7.556;2023-07-22T09:03:39;99607.59;;;19.84;51.94
75775;BME280;64505;51.458;7.556;2023-07-22T09:05:42;99603.59;;;19.81;52.56
75775;BME280;64505;51.458;7.556;2023-07-22T09:07:43;99604.34;;;19.87;52.82
75775;BME280;64505;51.458;7.556;2023-07-22T09:09:46;99599.19;;;19.90;52.29
75775;BME280;64505;51.458;7.556;2023-07-22T09:11:48;99595.56;;;19.81;52.31
75775;BME280;64505;51.458;7.556;2023-07-22T09:13:51;99599.44;;;19.70;52.49
75775;BME280;64505;51.458;7.556;2023-07-22T09:15:53;99607.19;;;19.72;52.84
75775;BME280;64505;51.458;7.556;2023-07-22T09:17:58;99604.56;;;19.90;52.56
75775;BME280;64505;51.458;7.556;2023-07-22T09:19:59;99612.59;;;20.14;51.04
75775;BME280;64505;51.458;7.556;2023-07-22T09:22:01;99615.44;;;20.23;50.23
75775;BME280;64505;51.458;7.556;2023-07-22T09:24:20;99607.31;;;20.33;50.13
75775;BME280;64505;51.458;7.556;2023-07-22T09:26:23;99609.06;;;20.61;50.90
75775;BME280;64505;51.458;7.556;2023-07-22T09:28:24;99605.78;;;20.64;50.67
75775;BME280;64505;51.458;7.556;2023-07-22T09:30:27;99594.59;;;20.76;51.45
75775;BME280;64505;51.458;7.556;2023-07-22T09:32:35;99598.63;;;21.10;51.38
75775;BME280;64505;51.458;7.556;2023-07-22T09:34:53;99602.88;;;21.30;50.72
75775;BME280;64505;51.458;7.556;2023-07-22T09:37:00;99600.19;;;21.30;49.78
75775;BME280;64505;51.458;7.556;2023-07-22T09:39:02;99596.81;;;21.38;49.10
75775;BME280;64505;51.458;7.556;2023-07-22T09:41:05;99606.78;;;21.38;48.93
75775;BME280;64505;51.458;7.556;2023-07-22T09:43:10;99597.72;;;21.47;49.66
75775;BME280;64505;51.458;7.556;2023-07-22T09:45:13;99602.72;;;21.54;50.67
75775;BME280;64505;51.458;7.556;2023-07-22T09:47:15;99600.19;;;21.30;48.73
75775;BME280;64505;51.458;7.556;2023-07-22T09:49:17;99604.31;;;21.41;50.25
75775;BME280;64505;51.458;7.556;2023-07-22T09:51:19;99603.88;;;21.34;50.59
75775;BME280;64505;51.458;7.556;2023-07-22T09:53:21;99598.94;;;21.41;51.25
75775;BME280;64505;51.458;7.556;2023-07-22T09:55:25;99606.88;;;21.46;50.08
75775;BME280;64505;51.458;7.556;2023-07-22T09:57:27;99606.13;;;21.27;47.92
75775;BME280;64505;51.458;7.556;2023-07-22T09:59:29;99604.56;;;21.26;48.06
75775;BME280;64505;51.458;7.556;2023-07-22T10:01:32;99602.22;;;21.52;47.90
75775;BME280;64505;51.458;7.556;2023-07-22T10:03:36;99606.28;;;21.36;46.13
75775;BME280;64505;51.458;7.556;2023-07-22T10:05:38;99608.38;;;21.39;46.34
75775;BME280;64505;51.458;7.556;2023-07-22T10:07:43;99608.47;;;21.34;47.79
75775;BME280;64505;51.458;7.556;2023-07-22T10:09:46;99608.56;;;21.10;47.77
75775;BME280;64505;51.458;7.556;2023-07-22T10:11:48;99607.84;;;21.23;48.06
75775;BME280;64505;51.458;7.556;2023-07-22T10:13:49;99605.81;;;21.15;47.83
75775;BME280;64505;51.458;7.556;2023-07-22T10:15:51;99606.88;;;21.33;48.85
75775;BME280;64505;51.458;7.556;2023-07-22T10:17:55;99601.69;;;21.36;47.88
75775;BME280;64505;51.458;7.556;2023-07-22T10:19:56;99605.81;;;21.61;49.45
75775;BME280;64505;51.458;7.556;2023-07-22T10:21:59;99611.91;;;21.67;48.04
75775;BME280;64505;51.458;7.556;2023-07-22T10:24:02;99601.03;;;21.72;46.88
75775;BME280;64505;51.458;7.556;2023-07-22T10:26:05;99609.25;;;21.94;47.98
75775;BME280;64505;51.458;7.556;2023-07-22T10:28:06;99607.75;;;21.88;46.53
75775;BME280;64505;51.458;7.556;2023-07-22T10:30:10;99598.84;;;22.15;49.94
75775;BME280;64505;51.458;7.556;2023-07-22T10:32:11;99594.88;;;22.12;48.01
75775;BME280;64505;51.458;7.556;2023-07-22T10:34:13;99597.44;;;22.31;47.54
75775;BME280;64505;51.458;7.556;2023-07-22T10:36:17;99596.78;;;22.12;46.76
75775;BME280;64505;51.458;7.556;2023-07-22T10:38:18;99591.50;;;22.06;46.57
75775;BME280;64505;51.458;7.556;2023-07-22T10:40:28;99586.47;;;22.27;46.10
75775;BME280;64505;51.458;7.556;2023-07-22T10:42:31;99587.78;;;21.89;46.28
75775;BME280;64505;51.458;7.556;2023-07-22T10:44:38;99581.72;;;22.46;47.58
75775;BME280;64505;51.458;7.556;2023-07-22T10:46:39;99576.38;;;22.33;45.38
75775;BME280;64505;51.458;7.556;2023-07-22T10:48:45;99582.47;;;22.25;44.72